Time;durP1;ratioP1;P1;durP2;ratioP2;P2;SDS_P1;SDS_P2;PMS_P1;PMS_P2;Temp;Humidity;BMP_temperature;BMP_pressure;BME280_temperature;BME280_humidity;BME280_pressure;Samples;Min_cycle;Max_cycle;Signal;HPM_P1;HPM_P2
2023/06/02 00:01:20;;;;;;;0.10;0.10;;;;;;;16.45;92.12;102138.38;10456027;28;20531;-80
2023/06/02 00:06:21;;;;;;;0.00;0.00;;;;;;;16.91;90.92;102136.69;10465806;28;20048;-80
2023/06/02 00:11:23;;;;;;;0.00;0.00;;;;;;;17.51;90.13;102130.84;10454965;28;20087;-78
2023/06/02 00:16:25;;;;;;;0.00;0.00;;;;;;;17.10;90.48;102130.16;10441743;28;20052;-79
2023/06/02 00:21:27;;;;;;;0.32;0.30;;;;;;;17.22;91.56;102126.88;10466165;28;20056;-79
2023/06/02 00:26:29;;;;;;;0.77;0.55;;;;;;;16.76;92.77;102129.47;10461021;28;20048;-80
2023/06/02 00:31:30;;;;;;;1.00;0.60;;;;;;;17.45;91.13;102118.59;10444872;28;20049;-78
2023/06/02 00:36:32;;;;;;;0.00;0.00;;;;;;;16.90;91.70;102128.88;10439853;28;20055;-79
2023/06/02 00:41:34;;;;;;;0.00;0.00;;;;;;;17.26;90.95;102125.22;10458620;28;20048;-78
2023/06/02 00:46:36;;;;;;;0.55;0.32;;;;;;;16.86;92.64;102120.13;10420156;28;20052;-80
2023/06/02 00:51:41;;;;;;;0.30;0.10;;;;;;;16.98;91.25;102119.50;10439314;28;20480;-81
2023/06/02 00:56:43;;;;;;;0.30;0.15;;;;;;;16.41;92.89;102121.84;10465614;28;20045;-80
2023/06/02 01:01:48;;;;;;;0.00;0.00;;;;;;;16.58;92.82;102116.97;10438900;28;20056;-80
2023/06/02 01:06:50;;;;;;;0.43;0.40;;;;;;;16.95;92.50;102120.34;10465805;28;20037;-78
2023/06/02 01:11:52;;;;;;;0.70;0.10;;;;;;;17.55;89.98;102117.91;10457219;28;20055;-78
2023/06/02 01:16:54;;;;;;;0.10;0.10;;;;;;;16.77;93.50;102120.84;10449089;28;20045;-79
2023/06/02 01:22:01;;;;;;;0.35;0.35;;;;;;;16.23;95.37;102130.13;10467321;28;20393;-80
2023/06/02 01:27:07;;;;;;;0.65;0.25;;;;;;;17.18;91.00;102121.59;10450560;28;20098;-81
2023/06/02 01:32:19;;;;;;;0.30;0.10;;;;;;;16.87;92.92;102118.38;10450831;28;20056;-80
2023/06/02 01:37:23;;;;;;;0.10;0.10;;;;;;;16.11;94.62;102120.31;10444652;28;20408;-80
2023/06/02 01:42:25;;;;;;;0.10;0.10;;;;;;;16.25;94.88;102128.41;10449241;28;20056;-81
2023/06/02 01:47:27;;;;;;;0.10;0.10;;;;;;;16.40;93.32;102116.59;10433707;28;20439;-81
2023/06/02 01:52:28;;;;;;;1.25;0.50;;;;;;;16.61;93.06;102121.38;10452254;28;20531;-80
2023/06/02 01:57:32;;;;;;;0.55;0.30;;;;;;;15.80;94.00;102129.09;10457541;28;20052;-80
2023/06/02 02:02:34;;;;;;;0.10;0.10;;;;;;;16.62;91.51;102120.53;10457243;28;20088;-79
2023/06/02 02:07:36;;;;;;;3.03;1.80;;;;;;;16.13;92.77;102129.00;10448710;28;20144;-79
2023/06/02 02:12:41;;;;;;;0.35;0.15;;;;;;;16.10;91.51;102136.75;10454227;28;20056;-79
2023/06/02 02:17:45;;;;;;;0.35;0.17;;;;;;;15.54;92.83;102145.78;10447503;28;20045;-82
2023/06/02 02:22:47;;;;;;;0.00;0.00;;;;;;;16.74;89.15;102136.38;10445140;28;20047;-79
2023/06/02 02:27:49;;;;;;;0.00;0.00;;;;;;;16.59;89.62;102134.34;10450185;28;20045;-79
2023/06/02 02:32:51;;;;;;;0.10;0.00;;;;;;;17.00;88.43;102133.44;10446122;28;20051;-80
2023/06/02 02:37:53;;;;;;;0.38;0.32;;;;;;;15.95;92.28;102133.81;10430716;28;20064;-81
2023/06/02 02:42:59;;;;;;;0.10;0.10;;;;;;;16.16;91.84;102129.09;10453821;28;20049;-80
2023/06/02 02:48:01;;;;;;;0.30;0.20;;;;;;;16.70;90.17;102129.38;10424732;28;20462;-79
2023/06/02 02:53:04;;;;;;;0.08;0.08;;;;;;;15.56;94.17;102140.66;10446273;28;20057;-81
2023/06/02 02:58:08;;;;;;;0.35;0.30;;;;;;;16.07;92.82;102128.88;10449448;28;20106;-80
2023/06/02 03:03:10;;;;;;;1.00;0.15;;;;;;;16.10;92.05;102134.16;10434134;28;20060;-80
2023/06/02 03:08:12;;;;;;;0.15;0.08;;;;;;;15.99;92.27;102140.81;10430918;28;20041;-80
2023/06/02 03:13:14;;;;;;;0.30;0.20;;;;;;;15.95;91.81;102139.88;10444436;28;20079;-79
2023/06/02 03:18:16;;;;;;;0.40;0.32;;;;;;;15.84;91.97;102139.63;10444390;28;20052;-78
2023/06/02 03:23:18;;;;;;;0.00;0.00;;;;;;;16.02;91.68;102135.72;10434883;28;20129;-80
2023/06/02 03:28:21;;;;;;;0.40;0.17;;;;;;;17.05;89.08;102134.41;10466578;28;20573;-78
2023/06/02 03:33:23;;;;;;;0.32;0.20;;;;;;;16.25;91.60;102137.94;10453942;28;20103;-80
2023/06/02 03:38:26;;;;;;;0.20;0.10;;;;;;;16.14;91.68;102142.91;10454563;28;20151;-80
2023/06/02 03:43:28;;;;;;;0.80;0.30;;;;;;;15.91;93.02;102137.16;10443521;28;20041;-79
2023/06/02 03:48:31;;;;;;;0.17;0.13;;;;;;;16.53;90.67;102138.53;10435436;28;20538;-79
2023/06/02 03:53:32;;;;;;;0.38;0.32;;;;;;;16.03;92.45;102137.47;10446537;28;20412;-81
2023/06/02 03:58:34;;;;;;;0.00;0.00;;;;;;;16.34;90.67;102144.22;10456653;28;20152;-81
2023/06/02 04:03:36;;;;;;;0.30;0.30;;;;;;;16.25;91.02;102151.81;10446215;28;20056;-80
2023/06/02 04:08:40;;;;;;;0.43;0.22;;;;;;;16.06;91.47;102158.31;10469336;28;20045;-80
2023/06/02 04:13:42;;;;;;;0.40;0.25;;;;;;;16.95;89.85;102150.69;10456464;28;20051;-79
2023/06/02 04:18:44;;;;;;;0.30;0.10;;;;;;;17.00;89.26;102153.38;10455937;28;20463;-79
2023/06/02 04:23:46;;;;;;;0.00;0.00;;;;;;;16.53;89.92;102154.16;10447185;28;20045;-79
2023/06/02 04:28:47;;;;;;;0.28;0.15;;;;;;;16.86;90.41;102153.97;10451155;28;20033;-79
2023/06/02 04:33:49;;;;;;;0.00;0.00;;;;;;;17.00;89.16;102156.88;10446869;28;20506;-79
2023/06/02 04:38:51;;;;;;;0.08;0.08;;;;;;;16.01;90.24;102157.34;10449235;28;20041;-81
2023/06/02 04:43:53;;;;;;;2.38;0.73;;;;;;;16.42;90.38;102162.59;10458249;28;20476;-80
2023/06/02 04:48:55;;;;;;;2.33;0.35;;;;;;;16.46;89.38;102154.03;10468385;28;20492;-82
2023/06/02 04:53:57;;;;;;;0.00;0.00;;;;;;;16.48;90.27;102162.75;10438640;28;20048;-81
2023/06/02 04:58:59;;;;;;;1.45;0.98;;;;;;;16.49;90.29;102166.22;10447086;28;20049;-80
2023/06/02 05:04:03;;;;;;;0.10;0.10;;;;;;;16.85;87.03;102166.94;10446464;28;20048;-80
2023/06/02 05:09:05;;;;;;;0.80;0.43;;;;;;;16.41;89.18;102167.75;10457618;28;20068;-79
2023/06/02 05:14:08;;;;;;;0.00;0.00;;;;;;;16.89;87.06;102169.66;10442040;28;20586;-78
2023/06/02 05:19:10;;;;;;;0.60;0.52;;;;;;;17.32;87.43;102172.19;10431352;28;20475;-79
2023/06/02 05:24:11;;;;;;;0.10;0.10;;;;;;;16.23;89.17;102166.53;10440655;28;20393;-80
2023/06/02 05:29:13;;;;;;;0.30;0.25;;;;;;;16.45;89.05;102174.81;10455306;28;20063;-79
2023/06/02 05:34:16;;;;;;;0.00;0.00;;;;;;;16.41;89.22;102171.25;10453782;28;20066;-79
2023/06/02 05:39:18;;;;;;;0.00;0.00;;;;;;;16.53;89.04;102174.97;10438615;28;20048;-81
2023/06/02 05:44:20;;;;;;;0.10;0.10;;;;;;;17.01;87.88;102174.25;10448579;28;20140;-79
2023/06/02 05:49:22;;;;;;;2.63;0.25;;;;;;;18.31;85.45;102162.53;10457255;28;20474;-79
2023/06/02 05:54:25;;;;;;;0.45;0.30;;;;;;;17.47;87.09;102168.13;10431961;28;20415;-79
2023/06/02 05:59:26;;;;;;;0.05;0.05;;;;;;;17.59;87.53;102164.00;10430253;28;20104;-79
2023/06/02 06:04:29;;;;;;;0.00;0.00;;;;;;;17.11;88.55;102170.97;10435118;28;20570;-79
2023/06/02 06:09:31;;;;;;;0.20;0.10;;;;;;;17.67;85.39;102165.84;10461048;28;20061;-79
2023/06/02 06:14:35;;;;;;;0.10;0.10;;;;;;;17.74;86.91;102160.78;10438254;28;20048;-79
2023/06/02 06:19:37;;;;;;;0.00;0.00;;;;;;;18.19;86.79;102160.63;10432517;28;20053;-80
2023/06/02 06:24:38;;;;;;;0.47;0.20;;;;;;;17.98;86.42;102162.06;10434645;28;20048;-81
2023/06/02 06:29:42;;;;;;;0.20;0.20;;;;;;;17.70;87.91;102172.00;10442518;28;20045;-79
2023/06/02 06:34:43;;;;;;;0.65;0.22;;;;;;;18.10;87.23;102166.56;10429862;28;20219;-79
2023/06/02 06:39:45;;;;;;;0.00;0.00;;;;;;;18.01;86.18;102169.06;10456911;28;20433;-79
2023/06/02 06:44:49;;;;;;;0.15;0.05;;;;;;;18.41;86.93;102172.22;10419395;28;20613;-79
2023/06/02 06:49:52;;;;;;;0.00;0.00;;;;;;;17.94;89.32;102175.84;10447050;28;20041;-78
2023/06/02 06:54:54;;;;;;;0.30;0.15;;;;;;;18.20;86.65;102171.06;10463787;28;20043;-79
2023/06/02 06:59:55;;;;;;;0.05;0.05;;;;;;;19.44;85.20;102171.69;10437064;28;20044;-78
2023/06/02 07:04:57;;;;;;;0.20;0.10;;;;;;;19.03;86.65;102179.09;10454265;28;20060;-79
2023/06/02 07:09:59;;;;;;;0.10;0.10;;;;;;;17.69;88.99;102180.66;10446603;28;20068;-80
2023/06/02 07:15:00;;;;;;;0.50;0.22;;;;;;;17.89;90.38;102182.75;10430168;28;20036;-79
2023/06/02 07:20:02;;;;;;;0.52;0.40;;;;;;;18.74;86.37;102175.25;10437696;28;20048;-79
2023/06/02 07:25:05;;;;;;;0.00;0.00;;;;;;;19.11;86.70;102183.53;10463620;28;20057;-79
2023/06/02 07:30:07;;;;;;;1.65;0.98;;;;;;;18.19;90.14;102186.69;10453850;28;20474;-79
2023/06/02 07:35:09;;;;;;;0.38;0.38;;;;;;;18.32;89.64;102196.47;10464432;28;20496;-79
2023/06/02 07:40:11;;;;;;;0.10;0.10;;;;;;;18.52;89.82;102204.56;10452735;28;20871;-80
2023/06/02 07:45:13;;;;;;;0.00;0.00;;;;;;;17.63;91.73;102209.22;10452665;28;20136;-80
2023/06/02 07:50:14;;;;;;;0.60;0.47;;;;;;;19.78;87.54;102196.38;10452521;28;20063;-79
2023/06/02 07:55:16;;;;;;;0.00;0.00;;;;;;;18.20;91.95;102198.91;10453113;28;20041;-79
2023/06/02 08:00:21;;;;;;;0.00;0.00;;;;;;;18.93;89.18;102192.03;10444993;28;20049;-79
2023/06/02 08:05:22;;;;;;;0.13;0.13;;;;;;;18.69;88.53;102190.88;10456470;28;20385;-80
2023/06/02 08:10:24;;;;;;;0.03;0.03;;;;;;;17.99;91.02;102189.88;10455010;28;20094;-82
2023/06/02 08:15:26;;;;;;;0.10;0.10;;;;;;;19.01;89.74;102196.50;10435493;28;20049;-80
2023/06/02 08:20:28;;;;;;;0.73;0.52;;;;;;;19.39;88.02;102202.13;10463031;28;20546;-80
2023/06/02 08:25:30;;;;;;;0.13;0.13;;;;;;;19.07;89.89;102195.69;10438022;28;20556;-79
2023/06/02 08:30:36;;;;;;;0.00;0.00;;;;;;;18.68;91.07;102192.59;10449705;28;20119;-80
2023/06/02 08:35:38;;;;;;;0.20;0.15;;;;;;;19.48;89.03;102202.19;10437414;28;20039;-79
2023/06/02 08:40:40;;;;;;;0.17;0.08;;;;;;;19.20;91.15;102196.69;10466901;28;20459;-79
2023/06/02 08:45:46;;;;;;;0.00;0.00;;;;;;;20.57;88.05;102191.69;10424639;28;20041;-78
2023/06/02 08:50:53;;;;;;;0.20;0.20;;;;;;;19.16;89.48;102198.41;10450145;28;20116;-79
2023/06/02 08:55:55;;;;;;;0.20;0.10;;;;;;;20.04;88.41;102194.84;10466179;28;20069;-80
2023/06/02 09:00:57;;;;;;;0.32;0.20;;;;;;;20.53;85.94;102196.91;10474149;28;20079;-80
2023/06/02 09:05:59;;;;;;;0.10;0.10;;;;;;;20.09;87.71;102200.97;10438057;28;20481;-79
2023/06/02 09:11:12;;;;;;;0.28;0.17;;;;;;;20.12;87.16;102201.03;10445481;28;20045;-79
2023/06/02 09:16:14;;;;;;;1.50;0.22;;;;;;;20.73;87.62;102197.03;10424919;28;20053;-80
2023/06/02 09:21:23;;;;;;;0.00;0.00;;;;;;;20.57;89.72;102194.31;10432312;28;20084;-79
2023/06/02 09:26:32;;;;;;;0.20;0.20;;;;;;;21.00;84.71;102203.22;10431778;28;20488;-81
2023/06/02 09:31:58;;;;;;;0.25;0.10;;;;;;;19.90;89.90;102198.25;10438869;28;20049;-81
2023/06/02 09:37:11;;;;;;;0.25;0.25;;;;;;;20.57;87.75;102199.53;10448357;28;20041;-80
2023/06/02 09:42:14;;;;;;;0.30;0.10;;;;;;;20.20;90.85;102194.09;10443953;28;20055;-81
2023/06/02 09:47:22;;;;;;;0.25;0.13;;;;;;;20.78;86.09;102192.66;10448795;28;20535;-80
2023/06/02 09:52:24;;;;;;;0.00;0.00;;;;;;;21.57;87.00;102198.13;10443106;28;20048;-79
2023/06/02 09:57:26;;;;;;;0.90;0.47;;;;;;;20.70;84.72;102196.97;10446836;28;20527;-80
2023/06/02 10:02:28;;;;;;;0.10;0.10;;;;;;;20.94;87.67;102182.25;10437273;28;20075;-79
2023/06/02 10:07:50;;;;;;;0.00;0.00;;;;;;;21.62;83.20;102180.63;10462782;28;20049;-79
2023/06/02 10:13:08;;;;;;;3.42;0.45;;;;;;;21.82;85.55;102185.88;10436441;28;20079;-79
2023/06/02 10:18:29;;;;;;;0.38;0.28;;;;;;;20.16;90.11;102192.31;10447964;28;20045;-81
2023/06/02 10:23:46;;;;;;;0.22;0.22;;;;;;;21.41;88.09;102184.06;10445036;28;20064;-79
2023/06/02 10:28:49;;;;;;;0.30;0.20;;;;;;;21.08;89.17;102186.63;10436045;28;20041;-80
2023/06/02 10:33:51;;;;;;;0.15;0.15;;;;;;;21.38;89.15;102194.56;10440214;28;20074;-81
2023/06/02 10:38:52;;;;;;;2.33;1.23;;;;;;;21.04;90.07;102186.63;10461277;28;20040;-80
2023/06/02 10:44:22;;;;;;;0.10;0.10;;;;;;;20.56;88.07;102195.16;10442000;28;20052;-79
2023/06/02 10:50:02;;;;;;;0.15;0.15;;;;;;;21.91;85.76;102192.00;10444917;28;20051;-78
2023/06/02 10:55:10;;;;;;;0.00;0.00;;;;;;;22.43;83.92;102186.66;10443793;28;20056;-80
2023/06/02 11:00:35;;;;;;;0.52;0.10;;;;;;;21.52;90.98;102194.59;10433105;28;20053;-79
2023/06/02 11:05:38;;;;;;;0.25;0.25;;;;;;;21.50;84.17;102183.22;10442275;28;20140;-79
2023/06/02 11:10:43;;;;;;;0.93;0.30;;;;;;;21.74;89.71;102174.50;10420936;28;20496;-78
2023/06/02 11:16:00;;;;;;;1.92;0.30;;;;;;;22.27;85.52;102182.31;10434125;28;20485;-79
2023/06/02 11:21:17;;;;;;;0.35;0.17;;;;;;;22.05;87.50;102181.47;10442750;28;20049;-79
2023/06/02 11:26:21;;;;;;;0.43;0.40;;;;;;;22.33;87.84;102179.66;10437872;28;20173;-78
2023/06/02 11:31:23;;;;;;;0.30;0.20;;;;;;;22.25;83.61;102184.06;10424621;28;20389;-80
2023/06/02 11:36:28;;;;;;;1.20;0.50;;;;;;;22.76;85.42;102182.16;10425758;28;20655;-78
2023/06/02 11:41:31;;;;;;;0.20;0.20;;;;;;;21.21;90.03;102186.69;10435174;28;20052;-80
2023/06/02 11:46:33;;;;;;;0.10;0.10;;;;;;;22.90;85.10;102181.19;10425406;28;20083;-79
2023/06/02 11:51:35;;;;;;;0.47;0.20;;;;;;;21.90;83.32;102177.13;10457268;28;20048;-81
2023/06/02 11:56:36;;;;;;;1.55;0.77;;;;;;;24.13;82.84;102165.38;10427306;28;20468;-79
2023/06/02 12:01:38;;;;;;;2.08;0.13;;;;;;;23.45;84.73;102170.34;10437399;28;20256;-79
2023/06/02 12:06:47;;;;;;;1.55;0.20;;;;;;;24.28;81.55;102152.03;10443741;28;20051;-79
2023/06/02 12:11:55;;;;;;;0.00;0.00;;;;;;;23.46;82.43;102152.81;10448641;28;20132;-79
2023/06/02 12:17:04;;;;;;;0.88;0.63;;;;;;;24.39;80.37;102158.03;10430168;28;20287;-79
2023/06/02 12:22:10;;;;;;;;;;;;;;;24.63;78.43;102144.59;10450782;28;20045;-79
2023/06/02 12:27:21;;;;;;;0.90;0.45;;;;;;;25.33;76.19;102147.97;10470032;28;20360;-80
2023/06/02 12:32:26;;;;;;;0.55;0.30;;;;;;;24.16;79.53;102152.19;10462919;28;20045;-81
2023/06/02 12:37:29;;;;;;;0.80;0.52;;;;;;;22.90;80.75;102152.28;10450261;28;20056;-79
2023/06/02 12:42:31;;;;;;;0.30;0.25;;;;;;;25.44;75.10;102149.59;10455211;28;20045;-79
2023/06/02 12:47:34;;;;;;;0.15;0.00;;;;;;;24.66;75.44;102149.81;10455360;28;20048;-79
2023/06/02 12:52:36;;;;;;;1.48;0.95;;;;;;;23.49;75.33;102149.31;10453734;28;20041;-81
2023/06/02 12:57:37;;;;;;;0.10;0.10;;;;;;;25.58;77.40;102142.31;10454503;28;20056;-79
2023/06/02 13:02:41;;;;;;;0.60;0.17;;;;;;;25.37;76.37;102127.69;10445245;28;20431;-79
2023/06/02 13:07:44;;;;;;;2.85;0.30;;;;;;;25.56;72.42;102133.56;10443019;28;20550;-83
2023/06/02 13:12:45;;;;;;;0.47;0.40;;;;;;;24.99;73.94;102132.66;10455572;28;20053;-83
2023/06/02 13:17:47;;;;;;;0.00;0.00;;;;;;;25.28;76.17;102138.41;10436180;28;20045;-81
2023/06/02 13:22:49;;;;;;;0.68;0.35;;;;;;;24.57;72.38;102119.19;10439783;28;20163;-81
2023/06/02 13:27:51;;;;;;;1.45;0.30;;;;;;;26.04;71.43;102115.94;10435397;28;20052;-79
2023/06/02 13:32:53;;;;;;;1.63;0.20;;;;;;;25.63;69.76;102114.09;10465527;28;20045;-81
2023/06/02 13:37:54;;;;;;;0.57;0.40;;;;;;;26.24;68.09;102116.47;10447397;28;20483;-80
2023/06/02 13:42:57;;;;;;;1.80;1.20;;;;;;;24.31;71.59;102119.53;10431910;28;20045;-81
2023/06/02 13:48:00;;;;;;;0.20;0.10;;;;;;;25.47;70.69;102107.34;10450035;28;20494;-80
2023/06/02 13:53:02;;;;;;;0.08;0.08;;;;;;;24.89;68.77;102103.84;10443209;28;20052;-80
2023/06/02 13:58:04;;;;;;;4.85;0.75;;;;;;;26.24;66.82;102100.63;10440160;28;20128;-79
2023/06/02 14:03:06;;;;;;;0.08;0.08;;;;;;;26.62;65.71;102098.03;10446723;28;20072;-81
2023/06/02 14:08:08;;;;;;;0.15;0.15;;;;;;;25.55;68.30;102105.44;10429918;28;20049;-79
2023/06/02 14:13:10;;;;;;;1.40;1.25;;;;;;;25.09;67.57;102111.44;10445340;28;20055;-80
2023/06/02 14:18:12;;;;;;;0.17;0.17;;;;;;;25.49;67.30;102100.28;10435206;28;20496;-79
2023/06/02 14:23:14;;;;;;;0.60;0.40;;;;;;;25.76;67.28;102098.00;10441322;28;20079;-80
2023/06/02 14:28:15;;;;;;;1.27;1.05;;;;;;;25.15;69.43;102090.25;10431232;28;20045;-80
2023/06/02 14:33:17;;;;;;;0.75;0.63;;;;;;;26.54;67.79;102092.94;10444056;28;20412;-79
2023/06/02 14:38:19;;;;;;;1.02;0.28;;;;;;;25.96;65.78;102095.84;10442056;28;20234;-79
2023/06/02 14:43:20;;;;;;;1.35;0.30;;;;;;;25.38;68.93;102094.25;10460571;28;20052;-82
2023/06/02 14:48:25;;;;;;;4.78;0.57;;;;;;;25.61;65.36;102091.28;10448263;28;20033;-80
2023/06/02 14:53:27;;;;;;;0.45;0.32;;;;;;;25.92;66.70;102094.19;10430233;28;20048;-79
2023/06/02 14:58:28;;;;;;;0.82;0.43;;;;;;;25.40;67.67;102089.88;10444051;28;20404;-80
2023/06/02 15:03:30;;;;;;;0.00;0.00;;;;;;;25.66;65.35;102090.25;10429139;28;20053;-79
2023/06/02 15:08:32;;;;;;;0.40;0.30;;;;;;;25.90;63.95;102085.41;10444934;28;20114;-79
2023/06/02 15:13:34;;;;;;;0.00;0.00;;;;;;;27.10;63.54;102075.78;10425383;28;20057;-79
2023/06/02 15:18:36;;;;;;;0.00;0.00;;;;;;;25.91;65.35;102071.31;10444400;28;20059;-79
2023/06/02 15:23:51;;;;;;;0.10;0.10;;;;;;;25.65;65.17;102063.91;10429068;28;20056;-80
2023/06/02 15:28:53;;;;;;;1.05;0.52;;;;;;;26.38;63.17;102070.38;10474806;28;20102;-79
2023/06/02 15:33:55;;;;;;;0.00;0.00;;;;;;;25.77;63.60;102068.09;10425090;28;20139;-79
2023/06/02 15:38:56;;;;;;;0.47;0.35;;;;;;;26.40;63.69;102069.44;10459766;28;20032;-79
2023/06/02 15:43:58;;;;;;;0.57;0.50;;;;;;;26.89;64.45;102062.19;10436339;28;20041;-79
2023/06/02 15:49:00;;;;;;;0.00;0.00;;;;;;;26.73;64.35;102055.50;10449676;28;20488;-79
2023/06/02 15:54:01;;;;;;;0.22;0.20;;;;;;;27.18;62.63;102036.78;10464292;28;20393;-79
2023/06/02 15:59:03;;;;;;;0.95;0.20;;;;;;;25.82;65.82;102045.09;10451239;28;20181;-79
2023/06/02 16:04:06;;;;;;;0.35;0.10;;;;;;;25.88;64.96;102044.97;10426969;28;20403;-79
2023/06/02 16:09:09;;;;;;;0.10;0.10;;;;;;;26.02;64.89;102041.19;10436758;28;20045;-79
2023/06/02 16:14:11;;;;;;;0.17;0.10;;;;;;;27.77;64.95;102024.63;10452092;28;20059;-79
2023/06/02 16:19:17;;;;;;;0.00;0.00;;;;;;;26.18;63.29;102032.06;10440217;28;20415;-80
2023/06/02 16:24:18;;;;;;;0.28;0.10;;;;;;;26.01;63.55;102029.75;10440989;28;20087;-80
2023/06/02 16:29:20;;;;;;;0.20;0.10;;;;;;;25.91;64.74;102031.72;10433038;28;20063;-79
2023/06/02 16:34:22;;;;;;;0.75;0.75;;;;;;;26.27;65.83;102037.16;10423625;28;20504;-80
2023/06/02 16:39:24;;;;;;;0.28;0.15;;;;;;;25.80;64.27;102028.44;10459869;28;20040;-79
2023/06/02 16:44:27;;;;;;;0.00;0.00;;;;;;;26.79;65.61;102021.00;10451263;28;20512;-79
2023/06/02 16:49:30;;;;;;;0.10;0.10;;;;;;;26.83;65.81;102016.50;10455229;28;20491;-79
2023/06/02 16:54:32;;;;;;;1.45;0.05;;;;;;;26.57;65.74;102024.13;10448807;28;20053;-80
2023/06/02 16:59:33;;;;;;;0.00;0.00;;;;;;;27.65;67.26;102019.69;10466350;28;20040;-79
2023/06/02 17:04:35;;;;;;;0.00;0.00;;;;;;;26.58;64.13;102019.72;10442477;28;20045;-79
2023/06/02 17:09:37;;;;;;;1.35;0.43;;;;;;;26.38;61.08;102028.13;10432260;28;20045;-80
2023/06/02 17:14:38;;;;;;;0.10;0.10;;;;;;;26.84;63.01;102027.06;10440132;28;20064;-79
2023/06/02 17:19:40;;;;;;;3.10;0.30;;;;;;;26.80;59.42;102025.38;10450489;28;20446;-80
2023/06/02 17:24:42;;;;;;;0.10;0.10;;;;;;;27.07;59.69;102028.22;10464283;28;20055;-79
2023/06/02 17:29:44;;;;;;;0.22;0.22;;;;;;;27.02;61.81;102024.84;10472589;28;20048;-80
2023/06/02 17:34:46;;;;;;;0.00;0.00;;;;;;;27.17;61.20;102029.75;10445975;28;20091;-79
2023/06/02 17:39:48;;;;;;;0.65;0.20;;;;;;;26.84;61.27;102027.06;10431390;28;20144;-79
2023/06/02 17:44:49;;;;;;;0.13;0.05;;;;;;;26.45;61.50;102029.72;10409390;28;20091;-79
2023/06/02 17:49:51;;;;;;;0.70;0.10;;;;;;;26.47;62.01;102027.03;10442031;28;20079;-79
2023/06/02 17:54:52;;;;;;;0.17;0.17;;;;;;;26.32;62.76;102033.53;10437518;28;20041;-79
2023/06/02 17:59:54;;;;;;;0.25;0.15;;;;;;;26.67;66.13;102032.72;10433117;28;20059;-79
2023/06/02 18:04:56;;;;;;;0.35;0.10;;;;;;;26.70;65.31;102040.56;10413057;28;20059;-79
2023/06/02 18:09:57;;;;;;;0.47;0.10;;;;;;;27.15;63.40;102030.69;10448066;28;20060;-79
2023/06/02 18:14:59;;;;;;;0.75;0.20;;;;;;;26.10;62.53;102031.38;10413441;28;20049;-79
2023/06/02 18:20:01;;;;;;;0.00;0.00;;;;;;;26.26;65.59;102029.25;10458577;28;20052;-79
2023/06/02 18:25:05;;;;;;;0.98;0.17;;;;;;;25.66;63.28;102029.56;10463937;28;20179;-79
2023/06/02 18:30:07;;;;;;;0.00;0.00;;;;;;;25.27;62.56;102025.88;10445900;28;20044;-79
2023/06/02 18:35:09;;;;;;;0.00;0.00;;;;;;;25.77;62.50;102025.84;10440770;28;20057;-79
2023/06/02 18:40:11;;;;;;;0.00;0.00;;;;;;;25.95;64.03;102020.19;10427927;28;20807;-79
2023/06/02 18:45:13;;;;;;;0.30;0.10;;;;;;;25.79;64.89;102038.13;10446731;28;20055;-79
2023/06/02 18:50:15;;;;;;;0.00;0.00;;;;;;;26.52;63.50;102031.31;10445070;28;20053;-79
2023/06/02 18:55:17;;;;;;;0.00;0.00;;;;;;;26.15;68.45;102032.13;10425788;28;20049;-78
2023/06/02 19:00:19;;;;;;;0.00;0.00;;;;;;;26.03;71.70;102022.69;10457384;28;20075;-79
2023/06/02 19:05:21;;;;;;;0.00;0.00;;;;;;;26.14;65.28;102038.31;10440485;28;20130;-79
2023/06/02 19:10:22;;;;;;;0.00;0.00;;;;;;;26.55;64.53;102025.94;10428147;28;20045;-79
2023/06/02 19:15:24;;;;;;;0.00;0.00;;;;;;;26.47;69.85;102017.34;10444719;28;20143;-79
2023/06/02 19:20:26;;;;;;;0.00;0.00;;;;;;;25.16;75.42;102020.81;10452720;28;20048;-78
2023/06/02 19:25:28;;;;;;;0.28;0.10;;;;;;;24.86;77.57;102021.31;10455999;28;20053;-78
2023/06/02 19:30:29;;;;;;;0.00;0.00;;;;;;;24.62;76.58;102032.19;10444876;28;20102;-79
2023/06/02 19:35:33;;;;;;;0.30;0.25;;;;;;;24.75;74.27;102023.22;10425317;28;20059;-79
2023/06/02 19:40:35;;;;;;;0.00;0.00;;;;;;;24.06;77.72;102028.56;10444761;28;20567;-79
2023/06/02 19:45:36;;;;;;;0.00;0.00;;;;;;;24.59;72.61;102033.13;10444046;28;20072;-79
2023/06/02 19:50:38;;;;;;;0.10;0.10;;;;;;;23.79;76.58;102049.94;10430589;28;20499;-78
2023/06/02 19:55:40;;;;;;;0.20;0.20;;;;;;;23.11;80.23;102056.66;10467191;28;20504;-79
2023/06/02 20:00:42;;;;;;;0.00;0.00;;;;;;;22.93;74.69;102057.69;10429891;28;20562;-79
2023/06/02 20:05:44;;;;;;;0.20;0.10;;;;;;;22.30;80.29;102058.94;10445691;28;20053;-79
2023/06/02 20:10:45;;;;;;;0.55;0.17;;;;;;;21.82;80.51;102059.06;10448298;28;20041;-79
2023/06/02 20:15:47;;;;;;;0.00;0.00;;;;;;;22.34;76.03;102058.03;10463399;28;20076;-78
2023/06/02 20:20:49;;;;;;;0.15;0.10;;;;;;;21.59;78.48;102067.00;10450661;28;20132;-79
2023/06/02 20:25:51;;;;;;;0.10;0.10;;;;;;;21.80;77.07;102072.19;10459544;28;20443;-78
2023/06/02 20:30:53;;;;;;;0.30;0.10;;;;;;;21.84;76.54;102068.72;10448708;28;20072;-78
2023/06/02 20:35:59;;;;;;;0.00;0.00;;;;;;;22.56;73.19;102069.31;10435821;28;20052;-78
2023/06/02 20:41:01;;;;;;;0.00;0.00;;;;;;;22.76;72.64;102081.47;10450445;28;20134;-79
2023/06/02 20:46:04;;;;;;;0.00;0.00;;;;;;;22.76;72.50;102086.72;10457153;28;20040;-78
2023/06/02 20:51:05;;;;;;;0.00;0.00;;;;;;;22.23;73.22;102086.09;10461566;28;20059;-78
2023/06/02 20:56:07;;;;;;;0.03;0.03;;;;;;;22.78;72.99;102085.81;10461079;28;20057;-79
2023/06/02 21:01:09;;;;;;;0.15;0.15;;;;;;;21.44;81.32;102089.72;10439218;28;20132;-78
2023/06/02 21:06:10;;;;;;;0.20;0.00;;;;;;;21.35;81.30;102089.72;10481701;28;20051;-79
2023/06/02 21:11:12;;;;;;;0.08;0.00;;;;;;;21.56;80.17;102094.94;10448634;28;20049;-79
2023/06/02 21:16:14;;;;;;;0.20;0.10;;;;;;;20.91;84.61;102097.53;10456519;28;20059;-78
2023/06/02 21:21:16;;;;;;;2.50;0.32;;;;;;;20.70;85.97;102106.19;10454999;28;20041;-79
2023/06/02 21:26:17;;;;;;;0.00;0.00;;;;;;;21.21;82.49;102102.81;10452261;28;20057;-79
2023/06/02 21:31:19;;;;;;;0.32;0.20;;;;;;;21.49;80.70;102097.56;10455119;28;20395;-79
2023/06/02 21:36:21;;;;;;;0.00;0.00;;;;;;;21.37;81.61;102093.22;10457720;28;20056;-79
2023/06/02 21:41:23;;;;;;;0.10;0.10;;;;;;;21.14;82.23;102096.69;10456755;28;20118;-79
2023/06/02 21:46:24;;;;;;;0.00;0.00;;;;;;;20.68;85.59;102096.56;10434434;28;20067;-79
2023/06/02 21:51:28;;;;;;;0.20;0.20;;;;;;;21.06;83.88;102103.66;10455421;28;20408;-79
2023/06/02 21:56:34;;;;;;;0.25;0.10;;;;;;;21.23;82.17;102099.31;10445961;28;20484;-78
2023/06/02 22:01:35;;;;;;;0.00;0.00;;;;;;;20.76;83.98;102106.25;10441679;28;20068;-79
2023/06/02 22:06:37;;;;;;;0.20;0.10;;;;;;;20.07;89.33;102114.66;10462464;28;20049;-79
2023/06/02 22:11:39;;;;;;;0.00;0.00;;;;;;;20.22;89.92;102119.06;10451361;28;20041;-79
2023/06/02 22:16:41;;;;;;;0.47;0.45;;;;;;;20.11;90.63;102111.16;10462842;28;20051;-79
2023/06/02 22:21:42;;;;;;;1.55;0.32;;;;;;;19.95;91.84;102109.38;10459348;28;20060;-78
2023/06/02 22:26:47;;;;;;;1.67;0.43;;;;;;;20.06;91.64;102112.03;10445452;28;20041;-79
2023/06/02 22:31:49;;;;;;;0.15;0.15;;;;;;;19.89;91.51;102115.41;10445938;28;20045;-79
2023/06/02 22:36:51;;;;;;;0.00;0.00;;;;;;;19.87;92.08;102117.13;10447043;28;20051;-79
2023/06/02 22:41:52;;;;;;;0.63;0.35;;;;;;;20.00;92.03;102117.22;10447189;28;20052;-79
2023/06/02 22:46:54;;;;;;;0.35;0.28;;;;;;;19.93;91.46;102122.41;10454105;28;20049;-79
2023/06/02 22:51:56;;;;;;;0.00;0.00;;;;;;;20.52;88.74;102122.69;10446320;28;20045;-79
2023/06/02 22:56:57;;;;;;;0.60;0.40;;;;;;;20.22;90.16;102133.91;10446491;28;20504;-78
2023/06/02 23:01:59;;;;;;;0.20;0.10;;;;;;;20.22;89.85;102134.78;10442723;28;20056;-79
2023/06/02 23:07:01;;;;;;;0.00;0.00;;;;;;;20.32;89.83;102140.06;10462489;28;20045;-78
2023/06/02 23:12:03;;;;;;;0.10;0.10;;;;;;;20.38;88.84;102145.31;10444991;28;20053;-78